sensor_id;sensor_type;location;lat;lon;timestamp;temperature;humidity
9810;DHT22;4944;52.514;13.192;2023-03-14T00:00:50;11.60;99.90
9810;DHT22;4944;52.514;13.192;2023-03-14T00:03:17;11.70;99.90
9810;DHT22;4944;52.514;13.192;2023-03-14T00:05:44;11.70;99.90
9810;DHT22;4944;52.514;13.192;2023-03-14T00:08:11;11.70;99.90
9810;DHT22;4944;52.514;13.192;2023-03-14T00:10:39;11.70;99.90
9810;DHT22;4944;52.514;13.192;2023-03-14T00:13:06;11.60;99.90
9810;DHT22;4944;52.514;13.192;2023-03-14T00:15:34;11.60;99.90
9810;DHT22;4944;52.514;13.192;2023-03-14T00:18:01;11.60;99.90
9810;DHT22;4944;52.514;13.192;2023-03-14T00:20:28;11.60;99.90
9810;DHT22;4944;52.514;13.192;2023-03-14T00:22:55;11.60;99.90
9810;DHT22;4944;52.514;13.192;2023-03-14T00:25:22;11.60;99.90
9810;DHT22;4944;52.514;13.192;2023-03-14T00:27:50;11.60;99.90
9810;DHT22;4944;52.514;13.192;2023-03-14T00:30:17;11.60;99.90
9810;DHT22;4944;52.514;13.192;2023-03-14T00:32:46;11.60;99.90
9810;DHT22;4944;52.514;13.192;2023-03-14T00:35:13;11.60;99.90
9810;DHT22;4944;52.514;13.192;2023-03-14T00:37:40;11.50;99.90
9810;DHT22;4944;52.514;13.192;2023-03-14T00:40:08;11.50;99.90
9810;DHT22;4944;52.514;13.192;2023-03-14T00:42:35;11.50;99.90
9810;DHT22;4944;52.514;13.192;2023-03-14T00:45:02;11.40;99.90
9810;DHT22;4944;52.514;13.192;2023-03-14T00:47:30;11.40;99.90
9810;DHT22;4944;52.514;13.192;2023-03-14T00:49:58;11.40;99.90
9810;DHT22;4944;52.514;13.192;2023-03-14T00:52:25;11.40;99.90
9810;DHT22;4944;52.514;13.192;2023-03-14T00:54:52;11.40;99.90
9810;DHT22;4944;52.514;13.192;2023-03-14T00:57:19;11.40;99.90
9810;DHT22;4944;52.514;13.192;2023-03-14T00:59:46;11.30;99.90
9810;DHT22;4944;52.514;13.192;2023-03-14T01:02:12;11.30;99.90
9810;DHT22;4944;52.514;13.192;2023-03-14T01:04:39;11.30;99.90
9810;DHT22;4944;52.514;13.192;2023-03-14T01:07:10;11.30;99.90
9810;DHT22;4944;52.514;13.192;2023-03-14T01:09:36;11.30;99.90
9810;DHT22;4944;52.514;13.192;2023-03-14T01:12:04;11.30;99.90
9810;DHT22;4944;52.514;13.192;2023-03-14T01:14:31;11.30;99.90
9810;DHT22;4944;52.514;13.192;2023-03-14T01:16:58;11.30;99.90
9810;DHT22;4944;52.514;13.192;2023-03-14T01:19:26;11.20;99.90
9810;DHT22;4944;52.514;13.192;2023-03-14T01:21:54;11.20;99.90
9810;DHT22;4944;52.514;13.192;2023-03-14T01:24:22;11.20;99.90
9810;DHT22;4944;52.514;13.192;2023-03-14T01:26:49;11.20;99.90
9810;DHT22;4944;52.514;13.192;2023-03-14T01:29:16;11.30;99.90
9810;DHT22;4944;52.514;13.192;2023-03-14T01:31:43;11.30;99.90
9810;DHT22;4944;52.514;13.192;2023-03-14T01:34:10;11.30;99.90
9810;DHT22;4944;52.514;13.192;2023-03-14T01:36:37;11.40;99.90
9810;DHT22;4944;52.514;13.192;2023-03-14T01:39:04;11.40;99.90
9810;DHT22;4944;52.514;13.192;2023-03-14T01:41:33;11.40;99.90
9810;DHT22;4944;52.514;13.192;2023-03-14T01:44:00;11.40;99.90
9810;DHT22;4944;52.514;13.192;2023-03-14T01:49:21;11.40;99.90
9810;DHT22;4944;52.514;13.192;2023-03-14T01:51:52;11.40;99.90
9810;DHT22;4944;52.514;13.192;2023-03-14T01:54:22;11.40;99.90
9810;DHT22;4944;52.514;13.192;2023-03-14T01:56:54;11.50;99.90
9810;DHT22;4944;52.514;13.192;2023-03-14T01:59:22;11.40;99.90
9810;DHT22;4944;52.514;13.192;2023-03-14T02:01:51;11.40;99.90
9810;DHT22;4944;52.514;13.192;2023-03-14T02:04:19;11.40;99.90
9810;DHT22;4944;52.514;13.192;2023-03-14T02:06:50;11.40;99.90
9810;DHT22;4944;52.514;13.192;2023-03-14T02:09:19;11.40;99.90
9810;DHT22;4944;52.514;13.192;2023-03-14T02:11:46;11.40;99.90
9810;DHT22;4944;52.514;13.192;2023-03-14T02:14:21;11.40;99.90
9810;DHT22;4944;52.514;13.192;2023-03-14T02:16:51;11.40;99.90
9810;DHT22;4944;52.514;13.192;2023-03-14T02:19:25;11.40;99.90
9810;DHT22;4944;52.514;13.192;2023-03-14T02:21:57;11.40;99.90
9810;DHT22;4944;52.514;13.192;2023-03-14T02:24:34;11.40;99.90
9810;DHT22;4944;52.514;13.192;2023-03-14T02:27:09;11.40;99.90
9810;DHT22;4944;52.514;13.192;2023-03-14T02:29:41;11.30;99.90
9810;DHT22;4944;52.514;13.192;2023-03-14T02:32:12;11.30;99.90
9810;DHT22;4944;52.514;13.192;2023-03-14T02:34:40;11.30;99.90
9810;DHT22;4944;52.514;13.192;2023-03-14T02:37:10;11.30;99.90
9810;DHT22;4944;52.514;13.192;2023-03-14T02:39:40;11.30;99.90
9810;DHT22;4944;52.514;13.192;2023-03-14T02:42:09;11.30;99.90
9810;DHT22;4944;52.514;13.192;2023-03-14T02:44:46;11.30;99.90
9810;DHT22;4944;52.514;13.192;2023-03-14T02:47:13;11.30;99.90
9810;DHT22;4944;52.514;13.192;2023-03-14T02:49:40;11.30;99.90
9810;DHT22;4944;52.514;13.192;2023-03-14T02:52:07;11.20;99.90
9810;DHT22;4944;52.514;13.192;2023-03-14T02:54:34;11.20;99.90
9810;DHT22;4944;52.514;13.192;2023-03-14T02:57:02;11.20;99.90
9810;DHT22;4944;52.514;13.192;2023-03-14T02:59:31;11.20;99.90
9810;DHT22;4944;52.514;13.192;2023-03-14T03:01:59;11.10;99.90
9810;DHT22;4944;52.514;13.192;2023-03-14T03:04:26;11.10;99.90
9810;DHT22;4944;52.514;13.192;2023-03-14T03:06:53;11.10;99.90
9810;DHT22;4944;52.514;13.192;2023-03-14T03:09:20;11.10;99.90
9810;DHT22;4944;52.514;13.192;2023-03-14T03:11:46;11.10;99.90
9810;DHT22;4944;52.514;13.192;2023-03-14T03:14:13;11.00;99.90
9810;DHT22;4944;52.514;13.192;2023-03-14T03:16:42;11.10;99.90
9810;DHT22;4944;52.514;13.192;2023-03-14T03:19:08;11.10;99.90
9810;DHT22;4944;52.514;13.192;2023-03-14T03:21:35;11.10;99.90
9810;DHT22;4944;52.514;13.192;2023-03-14T03:24:02;11.10;99.90
9810;DHT22;4944;52.514;13.192;2023-03-14T03:26:29;11.10;99.90
9810;DHT22;4944;52.514;13.192;2023-03-14T03:28:56;11.10;99.90
9810;DHT22;4944;52.514;13.192;2023-03-14T03:31:23;11.10;99.90
9810;DHT22;4944;52.514;13.192;2023-03-14T03:33:51;11.10;99.90
9810;DHT22;4944;52.514;13.192;2023-03-14T03:36:21;11.10;99.90
9810;DHT22;4944;52.514;13.192;2023-03-14T03:38:48;11.20;99.90
9810;DHT22;4944;52.514;13.192;2023-03-14T03:41:15;11.20;99.90
9810;DHT22;4944;52.514;13.192;2023-03-14T03:43:42;11.10;99.90
9810;DHT22;4944;52.514;13.192;2023-03-14T03:46:09;11.10;99.90
9810;DHT22;4944;52.514;13.192;2023-03-14T03:48:36;11.10;99.90
9810;DHT22;4944;52.514;13.192;2023-03-14T03:51:05;11.10;99.90
9810;DHT22;4944;52.514;13.192;2023-03-14T03:53:32;11.10;99.90
9810;DHT22;4944;52.514;13.192;2023-03-14T03:55:59;11.10;99.90
9810;DHT22;4944;52.514;13.192;2023-03-14T03:58:27;11.10;99.90
9810;DHT22;4944;52.514;13.192;2023-03-14T04:00:54;11.10;99.90
9810;DHT22;4944;52.514;13.192;2023-03-14T04:03:21;11.20;99.90
9810;DHT22;4944;52.514;13.192;2023-03-14T04:05:58;11.20;99.90
9810;DHT22;4944;52.514;13.192;2023-03-14T04:08:27;11.20;99.90
9810;DHT22;4944;52.514;13.192;2023-03-14T04:10:55;11.20;99.90
9810;DHT22;4944;52.514;13.192;2023-03-14T04:13:22;11.20;99.90
9810;DHT22;4944;52.514;13.192;2023-03-14T04:15:50;11.20;99.90
9810;DHT22;4944;52.514;13.192;2023-03-14T04:18:17;11.20;99.90
9810;DHT22;4944;52.514;13.192;2023-03-14T04:20:44;11.20;99.90
9810;DHT22;4944;52.514;13.192;2023-03-14T04:23:11;11.20;99.90
9810;DHT22;4944;52.514;13.192;2023-03-14T04:25:39;11.20;99.90
9810;DHT22;4944;52.514;13.192;2023-03-14T04:28:06;11.20;99.90
9810;DHT22;4944;52.514;13.192;2023-03-14T04:30:33;11.20;99.90
9810;DHT22;4944;52.514;13.192;2023-03-14T04:33:00;11.20;99.90
9810;DHT22;4944;52.514;13.192;2023-03-14T04:35:29;11.20;99.90
9810;DHT22;4944;52.514;13.192;2023-03-14T04:37:56;11.20;99.90
9810;DHT22;4944;52.514;13.192;2023-03-14T04:40:23;11.20;99.90
9810;DHT22;4944;52.514;13.192;2023-03-14T04:42:51;11.20;99.90
9810;DHT22;4944;52.514;13.192;2023-03-14T04:45:18;11.20;99.90
9810;DHT22;4944;52.514;13.192;2023-03-14T04:47:45;11.20;99.90
9810;DHT22;4944;52.514;13.192;2023-03-14T04:50:12;11.20;99.90
9810;DHT22;4944;52.514;13.192;2023-03-14T04:52:39;11.20;99.90
9810;DHT22;4944;52.514;13.192;2023-03-14T04:55:06;11.20;99.90
9810;DHT22;4944;52.514;13.192;2023-03-14T04:57:33;11.20;99.90
9810;DHT22;4944;52.514;13.192;2023-03-14T05:00:02;11.20;99.90
9810;DHT22;4944;52.514;13.192;2023-03-14T05:02:31;11.20;99.90
9810;DHT22;4944;52.514;13.192;2023-03-14T05:04:58;11.20;99.90
9810;DHT22;4944;52.514;13.192;2023-03-14T05:07:25;11.20;99.90
9810;DHT22;4944;52.514;13.192;2023-03-14T05:09:52;11.20;99.90
9810;DHT22;4944;52.514;13.192;2023-03-14T05:12:20;11.20;99.90
9810;DHT22;4944;52.514;13.192;2023-03-14T05:14:47;11.20;99.90
9810;DHT22;4944;52.514;13.192;2023-03-14T05:17:15;11.20;99.90
9810;DHT22;4944;52.514;13.192;2023-03-14T05:19:42;11.20;99.90
9810;DHT22;4944;52.514;13.192;2023-03-14T05:22:09;11.20;99.90
9810;DHT22;4944;52.514;13.192;2023-03-14T05:24:36;11.20;99.90
9810;DHT22;4944;52.514;13.192;2023-03-14T05:27:04;11.20;99.90
9810;DHT22;4944;52.514;13.192;2023-03-14T05:29:31;11.20;99.90
9810;DHT22;4944;52.514;13.192;2023-03-14T05:31:58;11.20;99.90
9810;DHT22;4944;52.514;13.192;2023-03-14T05:34:26;11.20;99.90
9810;DHT22;4944;52.514;13.192;2023-03-14T05:36:53;11.20;99.90
9810;DHT22;4944;52.514;13.192;2023-03-14T05:39:21;11.20;99.90
9810;DHT22;4944;52.514;13.192;2023-03-14T05:41:48;11.20;99.90
9810;DHT22;4944;52.514;13.192;2023-03-14T05:44:16;11.20;99.90
9810;DHT22;4944;52.514;13.192;2023-03-14T05:46:43;11.20;99.90
9810;DHT22;4944;52.514;13.192;2023-03-14T05:49:10;11.20;99.90
9810;DHT22;4944;52.514;13.192;2023-03-14T05:51:38;11.20;99.90
9810;DHT22;4944;52.514;13.192;2023-03-14T05:54:05;11.20;99.90
9810;DHT22;4944;52.514;13.192;2023-03-14T05:56:32;11.20;99.90
9810;DHT22;4944;52.514;13.192;2023-03-14T05:58:59;11.20;99.90
9810;DHT22;4944;52.514;13.192;2023-03-14T06:01:27;11.20;99.90
9810;DHT22;4944;52.514;13.192;2023-03-14T06:03:54;11.20;99.90
9810;DHT22;4944;52.514;13.192;2023-03-14T06:06:21;11.20;99.90
9810;DHT22;4944;52.514;13.192;2023-03-14T06:08:50;11.20;99.90
9810;DHT22;4944;52.514;13.192;2023-03-14T06:11:17;11.30;99.90
9810;DHT22;4944;52.514;13.192;2023-03-14T06:13:43;11.30;99.90
9810;DHT22;4944;52.514;13.192;2023-03-14T06:16:12;11.30;99.90
9810;DHT22;4944;52.514;13.192;2023-03-14T06:18:39;11.30;99.90
9810;DHT22;4944;52.514;13.192;2023-03-14T06:21:07;11.30;99.90
9810;DHT22;4944;52.514;13.192;2023-03-14T06:23:34;11.30;99.90
9810;DHT22;4944;52.514;13.192;2023-03-14T06:26:02;11.30;99.90
9810;DHT22;4944;52.514;13.192;2023-03-14T06:28:29;11.40;99.90
9810;DHT22;4944;52.514;13.192;2023-03-14T06:30:56;11.40;99.90
9810;DHT22;4944;52.514;13.192;2023-03-14T06:33:24;11.40;99.90
9810;DHT22;4944;52.514;13.192;2023-03-14T06:35:51;11.40;99.90
9810;DHT22;4944;52.514;13.192;2023-03-14T06:38:18;11.50;99.90
9810;DHT22;4944;52.514;13.192;2023-03-14T06:40:45;11.50;99.90
9810;DHT22;4944;52.514;13.192;2023-03-14T06:43:13;11.50;99.90
9810;DHT22;4944;52.514;13.192;2023-03-14T06:45:40;11.50;99.90
9810;DHT22;4944;52.514;13.192;2023-03-14T06:48:07;11.60;99.90
9810;DHT22;4944;52.514;13.192;2023-03-14T06:50:34;11.60;99.90
9810;DHT22;4944;52.514;13.192;2023-03-14T06:53:01;11.60;99.90
9810;DHT22;4944;52.514;13.192;2023-03-14T06:55:28;11.60;99.90
9810;DHT22;4944;52.514;13.192;2023-03-14T06:57:55;11.60;99.90
9810;DHT22;4944;52.514;13.192;2023-03-14T07:00:23;11.70;99.90
9810;DHT22;4944;52.514;13.192;2023-03-14T07:02:50;11.70;99.90
9810;DHT22;4944;52.514;13.192;2023-03-14T07:05:17;11.80;99.90
9810;DHT22;4944;52.514;13.192;2023-03-14T07:07:44;11.80;99.90
9810;DHT22;4944;52.514;13.192;2023-03-14T07:10:11;11.80;99.90
9810;DHT22;4944;52.514;13.192;2023-03-14T07:12:38;11.80;99.90
9810;DHT22;4944;52.514;13.192;2023-03-14T07:15:05;11.70;99.90
9810;DHT22;4944;52.514;13.192;2023-03-14T07:17:34;11.70;99.90
9810;DHT22;4944;52.514;13.192;2023-03-14T07:20:01;11.70;99.90
9810;DHT22;4944;52.514;13.192;2023-03-14T07:22:29;11.70;99.90
9810;DHT22;4944;52.514;13.192;2023-03-14T07:24:56;11.70;99.90
9810;DHT22;4944;52.514;13.192;2023-03-14T07:27:23;11.70;99.90
9810;DHT22;4944;52.514;13.192;2023-03-14T07:29:50;11.70;99.90
9810;DHT22;4944;52.514;13.192;2023-03-14T07:32:17;11.80;99.90
9810;DHT22;4944;52.514;13.192;2023-03-14T07:34:45;11.80;99.90
9810;DHT22;4944;52.514;13.192;2023-03-14T07:37:12;11.80;99.90
9810;DHT22;4944;52.514;13.192;2023-03-14T07:39:39;11.80;99.90
9810;DHT22;4944;52.514;13.192;2023-03-14T07:42:06;11.80;99.90
9810;DHT22;4944;52.514;13.192;2023-03-14T07:44:33;11.90;99.90
9810;DHT22;4944;52.514;13.192;2023-03-14T07:46:59;11.90;99.90
9810;DHT22;4944;52.514;13.192;2023-03-14T07:49:26;12.00;99.90
9810;DHT22;4944;52.514;13.192;2023-03-14T07:51:55;12.10;99.90
9810;DHT22;4944;52.514;13.192;2023-03-14T07:54:21;12.10;99.90
9810;DHT22;4944;52.514;13.192;2023-03-14T07:56:49;12.10;99.90
9810;DHT22;4944;52.514;13.192;2023-03-14T07:59:16;12.10;99.90
9810;DHT22;4944;52.514;13.192;2023-03-14T08:01:42;12.20;99.90
9810;DHT22;4944;52.514;13.192;2023-03-14T08:04:09;12.20;99.90
9810;DHT22;4944;52.514;13.192;2023-03-14T08:06:36;12.20;99.90
9810;DHT22;4944;52.514;13.192;2023-03-14T08:09:05;12.20;99.90
9810;DHT22;4944;52.514;13.192;2023-03-14T08:11:32;12.20;99.90
9810;DHT22;4944;52.514;13.192;2023-03-14T08:13:58;12.20;99.90
9810;DHT22;4944;52.514;13.192;2023-03-14T08:16:25;12.20;99.90
9810;DHT22;4944;52.514;13.192;2023-03-14T08:18:52;12.20;99.90
9810;DHT22;4944;52.514;13.192;2023-03-14T08:21:19;12.30;99.90
9810;DHT22;4944;52.514;13.192;2023-03-14T08:23:46;12.30;99.90
9810;DHT22;4944;52.514;13.192;2023-03-14T08:26:14;12.30;99.90
9810;DHT22;4944;52.514;13.192;2023-03-14T08:28:41;12.30;99.90
9810;DHT22;4944;52.514;13.192;2023-03-14T08:31:08;12.30;99.90
9810;DHT22;4944;52.514;13.192;2023-03-14T08:33:35;12.30;99.90
9810;DHT22;4944;52.514;13.192;2023-03-14T08:36:02;12.20;99.90
9810;DHT22;4944;52.514;13.192;2023-03-14T08:38:29;12.30;99.90
9810;DHT22;4944;52.514;13.192;2023-03-14T08:40:56;12.20;99.90
9810;DHT22;4944;52.514;13.192;2023-03-14T08:43:26;12.20;99.90
9810;DHT22;4944;52.514;13.192;2023-03-14T08:45:53;12.20;99.90
9810;DHT22;4944;52.514;13.192;2023-03-14T08:48:20;12.20;99.90
9810;DHT22;4944;52.514;13.192;2023-03-14T08:50:47;12.20;99.90
9810;DHT22;4944;52.514;13.192;2023-03-14T08:53:13;12.20;99.90
9810;DHT22;4944;52.514;13.192;2023-03-14T08:55:40;12.20;99.90
9810;DHT22;4944;52.514;13.192;2023-03-14T08:58:07;12.20;99.90
9810;DHT22;4944;52.514;13.192;2023-03-14T09:00:36;12.30;99.90
9810;DHT22;4944;52.514;13.192;2023-03-14T09:03:03;12.30;99.90
9810;DHT22;4944;52.514;13.192;2023-03-14T09:05:33;12.40;99.90
9810;DHT22;4944;52.514;13.192;2023-03-14T09:08:00;12.40;99.90
9810;DHT22;4944;52.514;13.192;2023-03-14T09:10:27;12.50;99.90
9810;DHT22;4944;52.514;13.192;2023-03-14T09:12:56;12.50;99.90
9810;DHT22;4944;52.514;13.192;2023-03-14T09:15:24;12.60;99.90
9810;DHT22;4944;52.514;13.192;2023-03-14T09:17:53;12.70;99.90
9810;DHT22;4944;52.514;13.192;2023-03-14T09:20:20;12.80;99.90
9810;DHT22;4944;52.514;13.192;2023-03-14T09:22:47;12.90;99.90
9810;DHT22;4944;52.514;13.192;2023-03-14T09:25:14;13.00;99.90
9810;DHT22;4944;52.514;13.192;2023-03-14T09:27:41;13.10;99.90
9810;DHT22;4944;52.514;13.192;2023-03-14T09:30:08;13.30;99.90
9810;DHT22;4944;52.514;13.192;2023-03-14T09:32:36;13.40;99.90
9810;DHT22;4944;52.514;13.192;2023-03-14T09:35:05;13.60;99.90
9810;DHT22;4944;52.514;13.192;2023-03-14T09:37:32;13.70;99.90
9810;DHT22;4944;52.514;13.192;2023-03-14T09:39:59;13.60;99.90
9810;DHT22;4944;52.514;13.192;2023-03-14T09:42:27;13.60;99.90
9810;DHT22;4944;52.514;13.192;2023-03-14T09:44:56;13.50;99.90
9810;DHT22;4944;52.514;13.192;2023-03-14T09:47:24;13.40;99.90
9810;DHT22;4944;52.514;13.192;2023-03-14T09:49:51;13.40;99.90
9810;DHT22;4944;52.514;13.192;2023-03-14T09:52:23;13.40;99.90
9810;DHT22;4944;52.514;13.192;2023-03-14T09:54:53;13.30;99.90
9810;DHT22;4944;52.514;13.192;2023-03-14T09:57:24;13.30;99.90
9810;DHT22;4944;52.514;13.192;2023-03-14T09:59:53;13.30;99.90
9810;DHT22;4944;52.514;13.192;2023-03-14T10:02:22;13.30;99.90
9810;DHT22;4944;52.514;13.192;2023-03-14T10:04:51;13.30;99.90
9810;DHT22;4944;52.514;13.192;2023-03-14T10:07:25;13.30;99.90
9810;DHT22;4944;52.514;13.192;2023-03-14T10:09:54;13.30;99.90
9810;DHT22;4944;52.514;13.192;2023-03-14T10:12:30;13.30;99.90
9810;DHT22;4944;52.514;13.192;2023-03-14T10:15:02;13.30;99.90
9810;DHT22;4944;52.514;13.192;2023-03-14T10:17:29;13.30;99.90
9810;DHT22;4944;52.514;13.192;2023-03-14T10:20:00;13.30;99.90
9810;DHT22;4944;52.514;13.192;2023-03-14T10:22:30;13.20;99.90
9810;DHT22;4944;52.514;13.192;2023-03-14T10:25:01;13.20;99.90
9810;DHT22;4944;52.514;13.192;2023-03-14T10:27:29;13.20;99.90
9810;DHT22;4944;52.514;13.192;2023-03-14T10:29:58;13.20;99.90
9810;DHT22;4944;52.514;13.192;2023-03-14T10:32:33;13.10;99.90
9810;DHT22;4944;52.514;13.192;2023-03-14T10:35:17;13.10;99.90
9810;DHT22;4944;52.514;13.192;2023-03-14T10:37:51;13.10;99.90
9810;DHT22;4944;52.514;13.192;2023-03-14T10:40:26;13.10;99.90
9810;DHT22;4944;52.514;13.192;2023-03-14T10:42:53;13.10;99.90
9810;DHT22;4944;52.514;13.192;2023-03-14T10:45:32;13.10;99.90
9810;DHT22;4944;52.514;13.192;2023-03-14T10:48:15;13.10;99.90
9810;DHT22;4944;52.514;13.192;2023-03-14T10:50:48;13.10;99.90
9810;DHT22;4944;52.514;13.192;2023-03-14T10:53:17;13.10;99.90
9810;DHT22;4944;52.514;13.192;2023-03-14T10:55:44;13.10;99.90
9810;DHT22;4944;52.514;13.192;2023-03-14T10:58:22;13.10;99.90
9810;DHT22;4944;52.514;13.192;2023-03-14T11:00:58;13.10;99.90
9810;DHT22;4944;52.514;13.192;2023-03-14T11:03:28;13.10;99.90
9810;DHT22;4944;52.514;13.192;2023-03-14T11:05:57;13.10;99.90
9810;DHT22;4944;52.514;13.192;2023-03-14T11:08:33;13.10;99.90
9810;DHT22;4944;52.514;13.192;2023-03-14T11:11:11;13.10;99.90
9810;DHT22;4944;52.514;13.192;2023-03-14T11:13:43;13.10;99.90
9810;DHT22;4944;52.514;13.192;2023-03-14T11:16:19;13.10;99.90
9810;DHT22;4944;52.514;13.192;2023-03-14T11:21:44;13.10;99.90
9810;DHT22;4944;52.514;13.192;2023-03-14T11:24:35;13.10;99.90
9810;DHT22;4944;52.514;13.192;2023-03-14T11:27:11;13.10;99.90
9810;DHT22;4944;52.514;13.192;2023-03-14T11:29:49;13.10;99.90
9810;DHT22;4944;52.514;13.192;2023-03-14T11:32:23;13.10;99.90
9810;DHT22;4944;52.514;13.192;2023-03-14T11:34:54;13.10;99.90
9810;DHT22;4944;52.514;13.192;2023-03-14T11:37:25;13.10;99.90
9810;DHT22;4944;52.514;13.192;2023-03-14T11:39:59;13.10;99.90
9810;DHT22;4944;52.514;13.192;2023-03-14T11:42:27;13.10;99.90
9810;DHT22;4944;52.514;13.192;2023-03-14T11:44:56;13.10;99.90
9810;DHT22;4944;52.514;13.192;2023-03-14T11:47:26;13.10;99.90
9810;DHT22;4944;52.514;13.192;2023-03-14T11:50:00;13.10;99.90
9810;DHT22;4944;52.514;13.192;2023-03-14T11:52:31;13.10;99.90
9810;DHT22;4944;52.514;13.192;2023-03-14T11:55:04;13.10;99.90
9810;DHT22;4944;52.514;13.192;2023-03-14T11:57:32;13.10;99.90
9810;DHT22;4944;52.514;13.192;2023-03-14T12:00:03;13.10;99.90
9810;DHT22;4944;52.514;13.192;2023-03-14T12:02:41;13.20;99.90
9810;DHT22;4944;52.514;13.192;2023-03-14T12:05:33;13.20;99.90
9810;DHT22;4944;52.514;13.192;2023-03-14T12:08:22;13.30;99.90
9810;DHT22;4944;52.514;13.192;2023-03-14T12:10:56;13.30;99.90
9810;DHT22;4944;52.514;13.192;2023-03-14T12:13:28;13.30;99.90
9810;DHT22;4944;52.514;13.192;2023-03-14T12:15:57;13.30;99.90
9810;DHT22;4944;52.514;13.192;2023-03-14T12:18:28;13.30;99.90
9810;DHT22;4944;52.514;13.192;2023-03-14T12:20:57;13.30;99.90
9810;DHT22;4944;52.514;13.192;2023-03-14T12:23:25;13.40;99.90
9810;DHT22;4944;52.514;13.192;2023-03-14T12:26:16;13.50;99.90
9810;DHT22;4944;52.514;13.192;2023-03-14T12:28:49;13.50;99.90
9810;DHT22;4944;52.514;13.192;2023-03-14T12:31:40;13.50;99.90
9810;DHT22;4944;52.514;13.192;2023-03-14T12:34:26;13.50;99.90
9810;DHT22;4944;52.514;13.192;2023-03-14T12:37:01;13.40;99.90
9810;DHT22;4944;52.514;13.192;2023-03-14T12:39:39;13.30;99.90
9810;DHT22;4944;52.514;13.192;2023-03-14T12:42:12;13.30;99.90
9810;DHT22;4944;52.514;13.192;2023-03-14T12:44:41;13.30;99.90
9810;DHT22;4944;52.514;13.192;2023-03-14T12:50:32;13.30;99.90
9810;DHT22;4944;52.514;13.192;2023-03-14T12:53:36;13.30;99.90
9810;DHT22;4944;52.514;13.192;2023-03-14T12:56:22;13.40;99.90
9810;DHT22;4944;52.514;13.192;2023-03-14T12:59:05;13.50;99.90
9810;DHT22;4944;52.514;13.192;2023-03-14T13:01:35;13.60;99.90
9810;DHT22;4944;52.514;13.192;2023-03-14T13:04:07;13.60;99.90
9810;DHT22;4944;52.514;13.192;2023-03-14T13:06:50;13.50;99.90
9810;DHT22;4944;52.514;13.192;2023-03-14T13:12:28;13.30;99.90
9810;DHT22;4944;52.514;13.192;2023-03-14T13:15:00;13.10;99.90
9810;DHT22;4944;52.514;13.192;2023-03-14T13:17:32;13.10;99.90
9810;DHT22;4944;52.514;13.192;2023-03-14T13:20:02;13.20;99.90
9810;DHT22;4944;52.514;13.192;2023-03-14T13:22:33;13.60;99.90
9810;DHT22;4944;52.514;13.192;2023-03-14T13:25:05;14.00;99.90
9810;DHT22;4944;52.514;13.192;2023-03-14T13:27:34;14.30;99.90
9810;DHT22;4944;52.514;13.192;2023-03-14T13:30:18;14.60;99.90
9810;DHT22;4944;52.514;13.192;2023-03-14T13:32:46;14.80;99.90
9810;DHT22;4944;52.514;13.192;2023-03-14T13:35:16;14.70;99.90
9810;DHT22;4944;52.514;13.192;2023-03-14T13:37:43;14.70;99.90
9810;DHT22;4944;52.514;13.192;2023-03-14T13:40:20;14.80;99.90
9810;DHT22;4944;52.514;13.192;2023-03-14T13:42:47;14.90;99.90
9810;DHT22;4944;52.514;13.192;2023-03-14T13:45:16;15.20;99.90
9810;DHT22;4944;52.514;13.192;2023-03-14T13:47:43;15.40;99.90
9810;DHT22;4944;52.514;13.192;2023-03-14T13:50:15;15.50;99.90
9810;DHT22;4944;52.514;13.192;2023-03-14T13:52:43;15.40;99.90
9810;DHT22;4944;52.514;13.192;2023-03-14T13:55:15;15.30;99.90
9810;DHT22;4944;52.514;13.192;2023-03-14T13:57:46;15.10;99.90
9810;DHT22;4944;52.514;13.192;2023-03-14T14:00:20;15.00;99.90
9810;DHT22;4944;52.514;13.192;2023-03-14T14:02:49;15.30;99.90
9810;DHT22;4944;52.514;13.192;2023-03-14T14:05:17;15.30;99.90
9810;DHT22;4944;52.514;13.192;2023-03-14T14:07:44;15.40;99.90
9810;DHT22;4944;52.514;13.192;2023-03-14T14:10:13;15.30;99.90
9810;DHT22;4944;52.514;13.192;2023-03-14T14:12:42;15.30;99.90
9810;DHT22;4944;52.514;13.192;2023-03-14T14:15:13;15.10;99.90
9810;DHT22;4944;52.514;13.192;2023-03-14T14:17:45;15.00;99.90
9810;DHT22;4944;52.514;13.192;2023-03-14T14:20:20;14.90;99.90
9810;DHT22;4944;52.514;13.192;2023-03-14T14:22:49;14.80;99.90
9810;DHT22;4944;52.514;13.192;2023-03-14T14:25:16;14.70;99.90
9810;DHT22;4944;52.514;13.192;2023-03-14T14:27:47;14.60;99.90
9810;DHT22;4944;52.514;13.192;2023-03-14T14:30:30;14.50;99.90
9810;DHT22;4944;52.514;13.192;2023-03-14T14:33:20;14.50;99.90
9810;DHT22;4944;52.514;13.192;2023-03-14T14:35:52;14.50;99.90
9810;DHT22;4944;52.514;13.192;2023-03-14T14:38:20;14.50;99.90
9810;DHT22;4944;52.514;13.192;2023-03-14T14:40:49;14.50;99.90
9810;DHT22;4944;52.514;13.192;2023-03-14T14:43:20;14.50;99.90
9810;DHT22;4944;52.514;13.192;2023-03-14T14:45:52;14.50;99.90
9810;DHT22;4944;52.514;13.192;2023-03-14T14:48:23;14.40;99.90
9810;DHT22;4944;52.514;13.192;2023-03-14T14:50:57;14.30;99.90
9810;DHT22;4944;52.514;13.192;2023-03-14T14:53:29;14.20;99.90
9810;DHT22;4944;52.514;13.192;2023-03-14T14:55:58;14.10;99.90
9810;DHT22;4944;52.514;13.192;2023-03-14T14:58:28;14.10;99.90
9810;DHT22;4944;52.514;13.192;2023-03-14T15:00:59;14.10;99.90
9810;DHT22;4944;52.514;13.192;2023-03-14T15:03:32;14.00;99.90
9810;DHT22;4944;52.514;13.192;2023-03-14T15:06:00;13.80;99.90
9810;DHT22;4944;52.514;13.192;2023-03-14T15:08:28;12.30;99.90
9810;DHT22;4944;52.514;13.192;2023-03-14T15:10:55;11.60;99.90
9810;DHT22;4944;52.514;13.192;2023-03-14T15:13:22;10.60;99.90
9810;DHT22;4944;52.514;13.192;2023-03-14T15:15:50;9.80;99.90
9810;DHT22;4944;52.514;13.192;2023-03-14T15:18:22;9.50;99.90
9810;DHT22;4944;52.514;13.192;2023-03-14T15:20:51;9.10;99.90
9810;DHT22;4944;52.514;13.192;2023-03-14T15:23:20;9.00;99.90
9810;DHT22;4944;52.514;13.192;2023-03-14T15:25:48;9.20;99.90
9810;DHT22;4944;52.514;13.192;2023-03-14T15:28:17;9.10;99.90
9810;DHT22;4944;52.514;13.192;2023-03-14T15:30:45;8.50;99.90
9810;DHT22;4944;52.514;13.192;2023-03-14T15:33:12;8.20;99.90
9810;DHT22;4944;52.514;13.192;2023-03-14T15:35:39;8.20;99.90
9810;DHT22;4944;52.514;13.192;2023-03-14T15:38:10;7.70;99.90
9810;DHT22;4944;52.514;13.192;2023-03-14T15:40:38;7.90;99.90
9810;DHT22;4944;52.514;13.192;2023-03-14T15:43:05;7.80;99.90
9810;DHT22;4944;52.514;13.192;2023-03-14T15:45:32;7.80;99.90
9810;DHT22;4944;52.514;13.192;2023-03-14T15:47:59;7.70;99.90
9810;DHT22;4944;52.514;13.192;2023-03-14T15:50:27;7.80;99.90
9810;DHT22;4944;52.514;13.192;2023-03-14T15:52:54;7.70;99.90
9810;DHT22;4944;52.514;13.192;2023-03-14T15:55:22;7.60;99.90
9810;DHT22;4944;52.514;13.192;2023-03-14T15:57:49;7.70;99.90
9810;DHT22;4944;52.514;13.192;2023-03-14T16:00:19;7.50;99.90
9810;DHT22;4944;52.514;13.192;2023-03-14T16:02:48;7.40;99.90
9810;DHT22;4944;52.514;13.192;2023-03-14T16:05:16;7.20;99.90
9810;DHT22;4944;52.514;13.192;2023-03-14T16:07:44;7.20;99.90
9810;DHT22;4944;52.514;13.192;2023-03-14T16:10:13;7.20;99.90
9810;DHT22;4944;52.514;13.192;2023-03-14T16:12:41;7.00;99.90